Time;durP1;ratioP1;P1;durP2;ratioP2;P2;SDS_P1;SDS_P2;PMS_P1;PMS_P2;Temp;Humidity;BMP_temperature;BMP_pressure;BME280_temperature;BME280_humidity;BME280_pressure;Samples;Min_cycle;Max_cycle;Signal;HPM_P1;HPM_P2
2021/05/08 00:01:37;;;;;;;24.20;18.57;;;;;;;;;;4974103;28;37719;-77
2021/05/08 00:04:04;;;;;;;23.03;16.67;;;;;;;;;;4954532;28;37873;-77
2021/05/08 00:06:33;;;;;;;28.27;20.80;;;;;;;;;;4972536;28;39302;-77
2021/05/08 00:08:59;;;;;;;27.20;21.20;;;;;;;;;;4972244;28;38950;-77
2021/05/08 00:11:26;;;;;;;21.83;17.03;;;;;;;;;;4970435;28;37568;-77
2021/05/08 00:13:52;;;;;;;28.70;18.23;;;;;;;;;;4986472;28;39419;-77
2021/05/08 00:16:19;;;;;;;23.47;19.40;;;;;;;;;;4991569;28;39323;-77
2021/05/08 00:18:45;;;;;;;25.97;20.10;;;;;;;;;;4991838;28;39049;-77
2021/05/08 00:21:11;;;;;;;28.83;18.70;;;;;;;;;;4972672;28;37231;-77
2021/05/08 00:23:38;;;;;;;30.23;21.27;;;;;;;;;;4974740;28;39735;-77
2021/05/08 00:26:04;;;;;;;29.23;21.50;;;;;;;;;;4973086;28;38647;-77
2021/05/08 00:28:31;;;;;;;25.03;18.50;;;;;;;;;;4991338;28;38169;-77
2021/05/08 00:30:57;;;;;;;27.13;20.73;;;;;;;;;;4974237;28;38269;-77
2021/05/08 00:33:23;;;;;;;27.87;20.17;;;;;;;;;;4974254;28;37437;-78
2021/05/08 00:35:50;;;;;;;32.43;22.50;;;;;;;;;;4972325;28;37534;-77
2021/05/08 00:38:16;;;;;;;29.37;21.43;;;;;;;;;;4972267;28;39989;-77
2021/05/08 00:40:42;;;;;;;31.83;22.47;;;;;;;;;;4972182;28;37767;-77
2021/05/08 00:43:09;;;;;;;27.00;18.73;;;;;;;;;;4972150;28;39478;-77
2021/05/08 00:45:35;;;;;;;27.87;21.00;;;;;;;;;;4971843;28;38810;-77
2021/05/08 00:48:07;;;;;;;27.17;21.60;;;;;;;;;;4972667;28;38648;-77
2021/05/08 00:50:34;;;;;;;34.80;23.13;;;;;;;;;;4972384;28;38724;-77
2021/05/08 00:53:01;;;;;;;28.00;20.53;;;;;;;;;;4971970;28;40642;-77
2021/05/08 00:55:27;;;;;;;31.53;22.40;;;;;;;;;;4990121;28;48709;-77
2021/05/08 00:57:54;;;;;;;29.87;21.43;;;;;;;;;;4972848;28;40188;-77
2021/05/08 01:00:21;;;;;;;26.33;20.27;;;;;;;;;;4970636;28;37858;-77
2021/05/08 01:02:47;;;;;;;25.43;19.43;;;;;;;;;;4969397;28;37834;-78
2021/05/08 01:05:14;;;;;;;34.67;23.00;;;;;;;;;;4986763;28;38463;-77
2021/05/08 01:07:41;;;;;;;31.97;22.40;;;;;;;;;;4989509;28;39393;-77
2021/05/08 01:10:11;;;;;;;28.07;21.33;;;;;;;;;;4988543;28;36904;-77
2021/05/08 01:12:38;;;;;;;30.47;22.87;;;;;;;;;;4990030;28;39403;-77
2021/05/08 01:15:06;;;;;;;26.47;20.17;;;;;;;;;;4971034;28;38855;-77
2021/05/08 01:17:32;;;;;;;36.20;24.13;;;;;;;;;;4986566;28;48530;-77
2021/05/08 01:19:58;;;;;;;26.80;20.50;;;;;;;;;;4971279;28;37459;-77
2021/05/08 01:22:25;;;;;;;33.30;25.37;;;;;;;;;;4988314;28;38300;-77
2021/05/08 01:24:51;;;;;;;29.83;23.40;;;;;;;;;;4970365;28;40094;-77
2021/05/08 01:27:18;;;;;;;28.20;19.87;;;;;;;;;;4971244;28;38538;-77
2021/05/08 01:29:44;;;;;;;29.20;20.83;;;;;;;;;;4989514;28;37484;-77
2021/05/08 01:32:11;;;;;;;29.17;21.20;;;;;;;;;;4987666;28;39873;-77
2021/05/08 01:34:37;;;;;;;29.43;21.70;;;;;;;;;;4973355;28;39136;-77
2021/05/08 01:37:03;;;;;;;36.67;23.23;;;;;;;;;;4970695;28;39458;-77
2021/05/08 01:39:30;;;;;;;32.23;23.37;;;;;;;;;;5008261;28;37030;-77
2021/05/08 01:41:57;;;;;;;45.37;25.63;;;;;;;;;;4989712;28;39533;-77
2021/05/08 01:44:23;;;;;;;28.13;22.20;;;;;;;;;;5007909;28;39443;-77
2021/05/08 01:46:50;;;;;;;34.97;25.67;;;;;;;;;;4989124;28;39894;-77
2021/05/08 01:49:16;;;;;;;33.17;23.13;;;;;;;;;;5008686;28;37874;-77
2021/05/08 01:51:44;;;;;;;31.00;22.97;;;;;;;;;;4989043;28;39256;-77
2021/05/08 01:54:14;;;;;;;30.80;22.73;;;;;;;;;;4989752;28;40045;-77
2021/05/08 01:56:40;;;;;;;31.37;22.60;;;;;;;;;;5007087;28;39585;-77
2021/05/08 01:59:07;;;;;;;36.27;23.90;;;;;;;;;;4988628;28;36293;-77
2021/05/08 02:01:33;;;;;;;27.03;21.20;;;;;;;;;;4999584;28;38907;-77
2021/05/08 02:03:59;;;;;;;35.90;24.20;;;;;;;;;;4971257;28;39555;-77
2021/05/08 02:06:26;;;;;;;33.73;23.70;;;;;;;;;;4969187;28;37765;-77
2021/05/08 02:08:52;;;;;;;31.20;22.00;;;;;;;;;;4969807;28;37351;-77
2021/05/08 02:11:19;;;;;;;30.43;23.80;;;;;;;;;;4988160;28;38752;-77
2021/05/08 02:13:45;;;;;;;31.60;22.17;;;;;;;;;;4988496;28;38702;-77
2021/05/08 02:16:11;;;;;;;31.43;21.03;;;;;;;;;;4987552;28;38588;-77
2021/05/08 02:18:38;;;;;;;37.57;24.40;;;;;;;;;;4972223;28;38535;-77
2021/05/08 02:21:04;;;;;;;31.33;22.80;;;;;;;;;;4968867;28;40348;-77
2021/05/08 02:23:30;;;;;;;29.90;21.40;;;;;;;;;;4987851;28;39361;-78
2021/05/08 02:25:57;;;;;;;32.80;24.60;;;;;;;;;;4988489;28;39771;-77
2021/05/08 02:28:23;;;;;;;27.43;20.10;;;;;;;;;;4971486;28;38075;-77
2021/05/08 02:30:50;;;;;;;29.83;22.50;;;;;;;;;;5007059;28;39563;-78
2021/05/08 02:33:16;;;;;;;31.93;23.07;;;;;;;;;;4997380;28;38279;-77
2021/05/08 02:35:43;;;;;;;34.47;23.27;;;;;;;;;;4987470;28;39148;-77
2021/05/08 02:38:09;;;;;;;30.47;23.23;;;;;;;;;;4945452;28;679462;-77
2021/05/08 02:40:38;;;;;;;27.90;21.33;;;;;;;;;;4970839;28;40719;-77
2021/05/08 02:43:04;;;;;;;33.23;23.23;;;;;;;;;;4988866;28;38121;-77
2021/05/08 02:45:31;;;;;;;24.17;19.63;;;;;;;;;;4970502;28;38975;-77
2021/05/08 02:47:58;;;;;;;31.33;21.93;;;;;;;;;;4969310;28;37507;-77
2021/05/08 02:50:24;;;;;;;27.13;19.87;;;;;;;;;;4969420;28;39645;-76
2021/05/08 02:52:51;;;;;;;24.73;19.37;;;;;;;;;;4969002;28;39748;-77
2021/05/08 02:55:17;;;;;;;23.30;17.13;;;;;;;;;;4987288;28;37887;-77
2021/05/08 02:57:44;;;;;;;24.80;18.43;;;;;;;;;;4969884;28;37994;-77
2021/05/08 03:00:15;;;;;;;23.57;18.07;;;;;;;;;;4969071;28;41139;-77
2021/05/08 03:02:42;;;;;;;31.57;20.23;;;;;;;;;;4988775;28;38954;-78
2021/05/08 03:05:09;;;;;;;27.83;18.73;;;;;;;;;;4987481;28;38548;-77
2021/05/08 03:07:36;;;;;;;21.50;16.67;;;;;;;;;;4970473;28;37181;-77
2021/05/08 03:10:03;;;;;;;21.63;16.43;;;;;;;;;;4974243;28;40596;-77
2021/05/08 03:12:29;;;;;;;18.70;15.53;;;;;;;;;;4992917;28;39982;-77
2021/05/08 03:14:56;;;;;;;21.33;13.87;;;;;;;;;;4974352;28;40192;-77
2021/05/08 03:17:22;;;;;;;19.00;14.23;;;;;;;;;;4973025;28;37788;-77
2021/05/08 03:19:48;;;;;;;17.53;13.67;;;;;;;;;;4972556;28;38135;-77
2021/05/08 03:22:15;;;;;;;16.63;14.13;;;;;;;;;;4973052;28;37193;-77
2021/05/08 03:24:41;;;;;;;19.30;14.23;;;;;;;;;;4973831;28;39026;-77
2021/05/08 03:27:08;;;;;;;16.87;13.50;;;;;;;;;;4991079;28;37978;-77
2021/05/08 03:29:34;;;;;;;17.80;13.80;;;;;;;;;;4991150;28;38916;-77
2021/05/08 03:32:00;;;;;;;21.83;15.53;;;;;;;;;;4991604;28;38792;-77
2021/05/08 03:34:27;;;;;;;17.93;13.77;;;;;;;;;;4974461;28;39767;-77
2021/05/08 03:36:54;;;;;;;14.73;11.90;;;;;;;;;;4978700;28;37647;-77
2021/05/08 03:39:20;;;;;;;18.73;12.60;;;;;;;;;;5011812;28;39346;-77
2021/05/08 03:41:47;;;;;;;20.87;13.57;;;;;;;;;;5010704;28;38771;-77
2021/05/08 03:44:13;;;;;;;19.60;13.67;;;;;;;;;;5006647;28;39269;-77
2021/05/08 03:46:39;;;;;;;18.60;12.20;;;;;;;;;;4992691;28;38011;-77
2021/05/08 03:49:06;;;;;;;25.70;13.30;;;;;;;;;;4992040;28;40459;-77
2021/05/08 03:51:32;;;;;;;21.53;14.50;;;;;;;;;;4991030;28;39854;-77
2021/05/08 03:53:59;;;;;;;18.57;13.00;;;;;;;;;;4980220;28;38948;-77
2021/05/08 03:56:25;;;;;;;20.80;14.83;;;;;;;;;;4992345;28;36994;-77
2021/05/08 03:58:52;;;;;;;17.93;11.97;;;;;;;;;;4973546;28;40942;-77
2021/05/08 04:01:18;;;;;;;17.60;13.23;;;;;;;;;;4990251;28;38461;-77
2021/05/08 04:03:45;;;;;;;15.20;11.53;;;;;;;;;;4971188;28;39774;-76
2021/05/08 04:06:11;;;;;;;13.17;11.10;;;;;;;;;;4969039;28;37657;-77
2021/05/08 04:08:37;;;;;;;15.87;11.70;;;;;;;;;;4971137;28;39192;-79
2021/05/08 04:11:04;;;;;;;13.20;10.93;;;;;;;;;;4977368;28;39007;-77
2021/05/08 04:13:30;;;;;;;12.40;9.90;;;;;;;;;;4973216;28;38780;-77
2021/05/08 04:15:56;;;;;;;13.53;10.70;;;;;;;;;;4990223;28;37185;-77
2021/05/08 04:18:23;;;;;;;12.27;10.67;;;;;;;;;;4992126;28;39221;-77
2021/05/08 04:20:49;;;;;;;13.33;10.43;;;;;;;;;;4971759;28;38890;-78
2021/05/08 04:23:16;;;;;;;12.47;9.63;;;;;;;;;;4990185;28;38466;-77
2021/05/08 04:25:42;;;;;;;14.97;11.30;;;;;;;;;;4972694;28;39090;-78
2021/05/08 04:28:09;;;;;;;15.07;11.03;;;;;;;;;;4973142;28;40771;-77
2021/05/08 04:30:36;;;;;;;14.67;10.37;;;;;;;;;;4973724;28;40534;-77
2021/05/08 04:33:03;;;;;;;15.43;10.60;;;;;;;;;;4971277;28;39719;-77
2021/05/08 04:35:29;;;;;;;15.90;11.37;;;;;;;;;;4971596;28;37122;-77
2021/05/08 04:38:00;;;;;;;17.57;10.87;;;;;;;;;;4971815;28;39800;-77
2021/05/08 04:40:27;;;;;;;14.97;10.83;;;;;;;;;;4987752;28;39548;-77
2021/05/08 04:42:53;;;;;;;16.00;10.20;;;;;;;;;;4992023;28;38355;-78
2021/05/08 04:45:20;;;;;;;17.63;10.63;;;;;;;;;;5013727;28;37222;-77
2021/05/08 04:47:46;;;;;;;14.10;11.17;;;;;;;;;;5030662;28;38472;-77
2021/05/08 04:50:13;;;;;;;13.50;11.07;;;;;;;;;;5030657;28;39035;-77
2021/05/08 04:52:39;;;;;;;17.57;11.07;;;;;;;;;;5030235;28;39242;-77
2021/05/08 04:55:06;;;;;;;16.70;12.10;;;;;;;;;;5002721;28;39051;-77
2021/05/08 04:57:32;;;;;;;13.07;10.83;;;;;;;;;;5010479;28;40025;-77
2021/05/08 04:59:58;;;;;;;13.80;11.13;;;;;;;;;;5010607;28;38653;-78
2021/05/08 05:02:25;;;;;;;12.80;9.77;;;;;;;;;;5009546;28;38621;-77
2021/05/08 05:04:51;;;;;;;16.30;11.77;;;;;;;;;;5010819;28;36804;-77
2021/05/08 05:07:17;;;;;;;16.17;12.33;;;;;;;;;;5009132;28;39776;-78
2021/05/08 05:09:44;;;;;;;15.87;10.97;;;;;;;;;;5009671;28;38539;-77
2021/05/08 05:12:10;;;;;;;15.63;11.40;;;;;;;;;;4990554;28;38930;-77
2021/05/08 05:14:37;;;;;;;15.93;11.93;;;;;;;;;;4993163;28;38594;-77
2021/05/08 05:17:03;;;;;;;20.23;11.60;;;;;;;;;;4990180;28;37567;-77
2021/05/08 05:19:29;;;;;;;20.63;12.37;;;;;;;;;;5002918;28;38712;-77
2021/05/08 05:21:55;;;;;;;17.27;11.53;;;;;;;;;;5010371;28;39124;-77
2021/05/08 05:24:22;;;;;;;12.90;10.97;;;;;;;;;;5019002;28;37168;-77
2021/05/08 05:26:48;;;;;;;13.17;10.03;;;;;;;;;;5009686;28;39096;-77
2021/05/08 05:29:15;;;;;;;13.40;8.87;;;;;;;;;;5008942;28;39474;-77
2021/05/08 05:31:41;;;;;;;13.17;9.80;;;;;;;;;;4990118;28;39339;-77
2021/05/08 05:34:07;;;;;;;14.17;9.50;;;;;;;;;;4992059;28;37500;-77
2021/05/08 05:36:34;;;;;;;13.87;9.97;;;;;;;;;;4991497;28;39651;-78
2021/05/08 05:39:00;;;;;;;13.20;9.23;;;;;;;;;;5009299;28;39651;-77
2021/05/08 05:41:27;;;;;;;15.63;9.00;;;;;;;;;;5009351;28;47592;-77
2021/05/08 05:43:53;;;;;;;15.53;9.10;;;;;;;;;;5008131;28;37179;-76
2021/05/08 05:46:19;;;;;;;12.30;9.00;;;;;;;;;;5007712;28;40513;-77
2021/05/08 05:48:46;;;;;;;11.53;9.33;;;;;;;;;;5008423;28;39878;-77
2021/05/08 05:51:12;;;;;;;11.47;8.77;;;;;;;;;;5006969;28;39119;-77
2021/05/08 05:53:39;;;;;;;13.43;8.77;;;;;;;;;;5010585;28;37887;-77
2021/05/08 05:56:05;;;;;;;13.93;8.30;;;;;;;;;;5006561;28;39959;-77
2021/05/08 05:58:32;;;;;;;10.63;8.57;;;;;;;;;;5008178;28;40101;-77
2021/05/08 06:00:58;;;;;;;12.00;9.60;;;;;;;;;;5009128;28;39100;-77
2021/05/08 06:03:25;;;;;;;13.87;9.57;;;;;;;;;;5004180;28;37519;-77
2021/05/08 06:05:52;;;;;;;15.07;9.80;;;;;;;;;;4989463;28;39330;-77
2021/05/08 06:08:18;;;;;;;11.47;8.80;;;;;;;;;;4971434;28;39077;-78
2021/05/08 06:10:45;;;;;;;13.13;8.97;;;;;;;;;;4984323;28;38985;-77
2021/05/08 06:13:12;;;;;;;13.87;9.07;;;;;;;;;;5007644;28;37304;-77
2021/05/08 06:15:39;;;;;;;12.67;9.13;;;;;;;;;;5007892;28;38961;-77
2021/05/08 06:18:05;;;;;;;12.20;8.40;;;;;;;;;;4989683;28;37454;-77
2021/05/08 06:20:32;;;;;;;12.73;9.57;;;;;;;;;;4990135;28;39682;-78
2021/05/08 06:22:58;;;;;;;14.50;8.70;;;;;;;;;;4990571;28;37360;-78
2021/05/08 06:25:25;;;;;;;14.17;8.80;;;;;;;;;;4988929;28;39420;-78
2021/05/08 06:27:53;;;;;;;11.07;8.00;;;;;;;;;;4990207;28;39936;-78
2021/05/08 06:30:19;;;;;;;14.33;8.73;;;;;;;;;;5007491;28;38583;-78
2021/05/08 06:32:46;;;;;;;14.80;8.47;;;;;;;;;;5007792;28;36988;-78
2021/05/08 06:35:12;;;;;;;16.13;9.88;;;;;;;;;;4995267;28;39569;-77
2021/05/08 06:37:39;;;;;;;15.45;8.60;;;;;;;;;;4988724;28;39618;-78
2021/05/08 06:40:05;;;;;;;14.93;8.40;;;;;;;;;;4984700;28;39936;-77
2021/05/08 06:42:32;;;;;;;12.77;8.63;;;;;;;;;;4987001;28;37599;-78
2021/05/08 06:44:59;;;;;;;10.23;8.23;;;;;;;;;;5002014;28;40883;-77
2021/05/08 06:47:25;;;;;;;10.60;8.17;;;;;;;;;;5006831;28;39637;-77
2021/05/08 06:49:52;;;;;;;15.03;8.97;;;;;;;;;;5008307;28;37860;-78
2021/05/08 06:52:18;;;;;;;9.40;7.88;;;;;;;;;;5005667;28;37630;-77
2021/05/08 06:54:44;;;;;;;10.27;8.30;;;;;;;;;;5008089;28;38626;-78
2021/05/08 06:57:11;;;;;;;10.23;7.80;;;;;;;;;;5006853;28;38750;-77
2021/05/08 06:59:37;;;;;;;11.90;7.97;;;;;;;;;;5007272;28;37067;-77
2021/05/08 07:02:04;;;;;;;13.18;8.07;;;;;;;;;;5018240;28;35943;-77
2021/05/08 07:04:31;;;;;;;13.13;8.63;;;;;;;;;;5006842;28;39941;-77
2021/05/08 07:06:57;;;;;;;11.63;8.07;;;;;;;;;;4987711;28;39427;-77
2021/05/08 07:09:24;;;;;;;13.43;8.13;;;;;;;;;;4988202;28;39357;-77
2021/05/08 07:11:50;;;;;;;14.27;8.10;;;;;;;;;;4985500;28;37378;-78
2021/05/08 07:14:17;;;;;;;11.68;8.93;;;;;;;;;;4990041;28;39672;-77
2021/05/08 07:16:43;;;;;;;10.23;7.37;;;;;;;;;;5005890;28;38769;-77
2021/05/08 07:19:10;;;;;;;11.70;8.52;;;;;;;;;;5022373;28;37755;-77
2021/05/08 07:21:38;;;;;;;13.25;7.75;;;;;;;;;;5023463;28;38623;-77
2021/05/08 07:24:04;;;;;;;11.10;8.00;;;;;;;;;;5023735;28;40256;-78
2021/05/08 07:26:31;;;;;;;12.95;8.63;;;;;;;;;;5024363;28;38391;-77
2021/05/08 07:28:59;;;;;;;10.10;7.40;;;;;;;;;;5023869;28;38746;-77
2021/05/08 07:31:26;;;;;;;11.15;7.13;;;;;;;;;;5026016;28;37282;-77
2021/05/08 07:33:53;;;;;;;10.60;7.53;;;;;;;;;;5024776;28;41047;-77
2021/05/08 07:36:19;;;;;;;11.43;8.13;;;;;;;;;;5023123;28;38412;-77
2021/05/08 07:38:46;;;;;;;10.90;7.72;;;;;;;;;;5025195;28;39279;-77
2021/05/08 07:41:13;;;;;;;12.52;6.65;;;;;;;;;;5025627;28;37958;-77
2021/05/08 07:43:39;;;;;;;13.30;6.50;;;;;;;;;;5025328;28;40557;-78
2021/05/08 07:46:06;;;;;;;11.48;7.03;;;;;;;;;;5025445;28;38348;-77
2021/05/08 07:48:32;;;;;;;12.95;7.30;;;;;;;;;;5025069;28;39204;-78
2021/05/08 07:50:58;;;;;;;9.73;7.05;;;;;;;;;;5023557;28;36466;-77
2021/05/08 07:53:25;;;;;;;11.68;7.38;;;;;;;;;;5014597;28;40436;-77
2021/05/08 07:55:51;;;;;;;15.70;7.57;;;;;;;;;;5007213;28;39290;-78
2021/05/08 07:58:17;;;;;;;14.23;6.75;;;;;;;;;;5008941;28;37979;-77
2021/05/08 08:00:44;;;;;;;10.38;6.43;;;;;;;;;;5009090;28;37017;-77
2021/05/08 08:03:10;;;;;;;9.80;6.25;;;;;;;;;;4991311;28;39180;-77
2021/05/08 08:05:37;;;;;;;9.82;6.60;;;;;;;;;;4987541;28;38170;-76
2021/05/08 08:08:03;;;;;;;10.35;6.53;;;;;;;;;;4989454;28;37761;-77
2021/05/08 08:10:29;;;;;;;8.25;5.68;;;;;;;;;;5007464;28;37448;-76
2021/05/08 08:12:56;;;;;;;11.15;5.90;;;;;;;;;;5009337;28;38973;-76
2021/05/08 08:15:22;;;;;;;9.93;6.03;;;;;;;;;;5008033;28;38742;-75
2021/05/08 08:17:49;;;;;;;10.85;6.13;;;;;;;;;;5010226;28;38390;-77
2021/05/08 08:20:15;;;;;;;10.10;5.88;;;;;;;;;;5008703;28;36148;-76
2021/05/08 08:22:42;;;;;;;12.85;5.75;;;;;;;;;;5009011;28;38977;-77
2021/05/08 08:25:09;;;;;;;10.85;5.78;;;;;;;;;;5008580;28;38825;-76
2021/05/08 08:27:36;;;;;;;7.75;5.28;;;;;;;;;;5027550;28;39744;-76
2021/05/08 08:30:03;;;;;;;7.88;5.10;;;;;;;;;;5026802;28;37134;-77
2021/05/08 08:32:30;;;;;;;10.88;6.00;;;;;;;;;;5026333;28;39354;-77
2021/05/08 08:34:56;;;;;;;8.55;5.25;;;;;;;;;;5022294;28;38330;-76
2021/05/08 08:37:22;;;;;;;8.70;5.57;;;;;;;;;;5005960;28;37792;-76
2021/05/08 08:39:49;;;;;;;7.10;5.22;;;;;;;;;;5006576;28;38542;-77
2021/05/08 08:42:15;;;;;;;10.38;5.53;;;;;;;;;;5006276;28;39324;-76
2021/05/08 08:44:42;;;;;;;9.38;5.57;;;;;;;;;;5009258;28;38892;-77
2021/05/08 08:49:55;;;;;;;7.68;5.18;;;;;;;;;;5009188;28;38479;-77
2021/05/08 08:52:22;;;;;;;9.43;5.07;;;;;;;;;;5007299;28;38334;-77
2021/05/08 08:54:48;;;;;;;6.70;4.78;;;;;;;;;;5006478;28;38326;-77
2021/05/08 08:57:15;;;;;;;8.98;4.95;;;;;;;;;;5006134;28;36650;-77
2021/05/08 08:59:43;;;;;;;7.25;5.15;;;;;;;;;;5007181;28;37310;-76
2021/05/08 09:02:09;;;;;;;8.90;5.53;;;;;;;;;;5005183;28;40301;-77
2021/05/08 09:04:36;;;;;;;10.95;5.10;;;;;;;;;;5008647;28;40093;-77
2021/05/08 09:07:03;;;;;;;6.90;4.78;;;;;;;;;;5005753;28;38148;-77
2021/05/08 09:09:30;;;;;;;8.98;4.85;;;;;;;;;;5007401;28;36994;-77
2021/05/08 09:11:56;;;;;;;10.50;5.60;;;;;;;;;;5008520;28;38482;-77
2021/05/08 09:14:32;;;;;;;8.10;5.43;;;;;;;;;;5008611;28;38795;-77
2021/05/08 09:17:08;;;;;;;12.18;6.18;;;;;;;;;;5014907;28;38435;-76
2021/05/08 09:19:36;;;;;;;9.50;5.40;;;;;;;;;;5029489;28;48488;-77
2021/05/08 09:22:21;;;;;;;11.68;6.53;;;;;;;;;;5024523;28;41281;-76
2021/05/08 09:24:59;;;;;;;10.07;5.32;;;;;;;;;;5029163;28;39180;-77
2021/05/08 09:27:32;;;;;;;7.80;5.32;;;;;;;;;;5030295;28;38241;-78
2021/05/08 09:30:06;;;;;;;8.07;5.20;;;;;;;;;;5027283;28;37677;-77
2021/05/08 09:32:36;;;;;;;10.60;5.75;;;;;;;;;;5007968;28;47348;-77
2021/05/08 09:35:15;;;;;;;7.80;5.75;;;;;;;;;;5010753;28;38618;-77
2021/05/08 09:37:41;;;;;;;10.18;5.43;;;;;;;;;;5009005;28;48767;-78
2021/05/08 09:40:15;;;;;;;8.55;5.85;;;;;;;;;;5007138;28;38171;-77
2021/05/08 09:42:48;;;;;;;9.65;5.85;;;;;;;;;;5008661;28;39935;-77
2021/05/08 09:45:14;;;;;;;;;;;;;;;;;;5010103;28;38929;-78
2021/05/08 09:47:40;;;;;;;8.90;5.23;;;;;;;;;;4993794;28;38909;-78
2021/05/08 09:50:07;;;;;;;8.45;5.70;;;;;;;;;;5007738;28;37729;-78
2021/05/08 09:52:53;;;;;;;7.95;5.47;;;;;;;;;;5029316;28;38955;-78
2021/05/08 09:55:20;;;;;;;9.10;5.80;;;;;;;;;;5019610;28;38613;-78
2021/05/08 09:58:04;;;;;;;9.30;5.70;;;;;;;;;;5010629;28;38046;-78
2021/05/08 10:00:32;;;;;;;8.45;5.63;;;;;;;;;;4990556;28;48958;-78
2021/05/08 10:03:02;;;;;;;11.38;6.50;;;;;;;;;;5009571;28;40108;-78
2021/05/08 10:05:28;;;;;;;8.95;5.70;;;;;;;;;;5007417;28;39987;-79
2021/05/08 10:07:56;;;;;;;10.52;6.13;;;;;;;;;;5008575;28;38178;-79
2021/05/08 10:10:22;;;;;;;9.05;6.40;;;;;;;;;;5006854;28;37451;-79
2021/05/08 10:12:49;;;;;;;12.48;6.60;;;;;;;;;;5008394;28;38824;-79
2021/05/08 10:15:15;;;;;;;9.15;5.97;;;;;;;;;;4995836;28;38023;-78
2021/05/08 10:17:44;;;;;;;7.78;5.85;;;;;;;;;;5005895;28;37819;-79
2021/05/08 10:20:13;;;;;;;8.13;5.18;;;;;;;;;;5006200;28;38141;-78
2021/05/08 10:22:46;;;;;;;8.98;6.13;;;;;;;;;;5006777;28;39643;-78
2021/05/08 10:25:13;;;;;;;8.73;5.88;;;;;;;;;;5004515;28;39380;-78
2021/05/08 10:27:40;;;;;;;8.45;6.22;;;;;;;;;;5008506;28;38624;-78
2021/05/08 10:30:09;;;;;;;7.88;5.53;;;;;;;;;;5006821;28;38479;-77
2021/05/08 10:32:38;;;;;;;10.68;5.43;;;;;;;;;;5009293;28;49687;-78
2021/05/08 10:35:05;;;;;;;6.00;5.40;;;;;;;;;;5008452;28;38622;-78
2021/05/08 10:37:32;;;;;;;8.10;5.80;;;;;;;;;;5004928;28;47359;-78
2021/05/08 10:40:03;;;;;;;8.68;6.55;;;;;;;;;;5005426;28;35634;-78
2021/05/08 10:42:29;;;;;;;8.25;5.75;;;;;;;;;;4989941;28;47361;-79
2021/05/08 10:44:56;;;;;;;7.07;6.13;;;;;;;;;;5007866;28;38497;-78
2021/05/08 10:47:22;;;;;;;7.70;5.87;;;;;;;;;;4988465;28;39959;-78
2021/05/08 10:50:25;;;;;;;9.00;6.40;;;;;;;;;;4990634;28;37759;-79
2021/05/08 10:53:04;;;;;;;7.80;6.00;;;;;;;;;;4917969;29;48614;-79
2021/05/08 10:55:43;;;;;;;8.93;5.53;;;;;;;;;;4997440;28;48905;-79
2021/05/08 11:00:45;;;;;;;9.60;6.60;;;;;;;;;;5027086;28;37361;-79
2021/05/08 11:03:11;;;;;;;8.60;5.70;;;;;;;;;;5030197;28;39416;-78
2021/05/08 11:05:49;;;;;;;8.77;6.30;;;;;;;;;;5028208;28;38742;-79
2021/05/08 11:08:28;;;;;;;8.83;6.47;;;;;;;;;;4990849;28;38333;-78
2021/05/08 11:10:54;;;;;;;8.97;7.17;;;;;;;;;;4989708;28;38042;-79
2021/05/08 11:13:22;;;;;;;9.48;7.20;;;;;;;;;;4990006;28;39538;-79
2021/05/08 11:15:54;;;;;;;8.07;7.17;;;;;;;;;;5005663;28;38827;-80
2021/05/08 11:18:21;;;;;;;;;;;;;;;;;;4992800;28;37416;-79
2021/05/08 11:20:47;;;;;;;10.00;7.77;;;;;;;;;;4992702;28;35549;-80
2021/05/08 11:23:20;;;;;;;9.27;7.80;;;;;;;;;;4991779;28;37557;-80
2021/05/08 11:25:46;;;;;;;9.47;7.47;;;;;;;;;;4992638;28;37799;-79
2021/05/08 11:28:13;;;;;;;15.13;8.03;;;;;;;;;;4994129;28;37215;-79
2021/05/08 11:30:55;;;;;;;10.90;7.43;;;;;;;;;;5011625;28;36708;-80
2021/05/08 11:33:28;;;;;;;13.05;8.88;;;;;;;;;;5012831;28;38824;-80
2021/05/08 11:36:00;;;;;;;16.40;8.13;;;;;;;;;;5012890;28;38807;-79
2021/05/08 11:38:27;;;;;;;;;;;;;;;;;;4995544;28;37338;-80
2021/05/08 11:40:53;;;;;;;12.30;8.27;;;;;;;;;;5016598;28;37772;-80
2021/05/08 11:43:24;;;;;;;9.27;7.43;;;;;;;;;;5009731;28;37617;-79
2021/05/08 11:45:50;;;;;;;9.80;7.83;;;;;;;;;;5012313;28;37525;-79
2021/05/08 11:48:17;;;;;;;11.77;7.30;;;;;;;;;;5012307;28;36859;-79
2021/05/08 11:50:46;;;;;;;11.30;7.47;;;;;;;;;;5027414;28;36684;-81
2021/05/08 11:53:19;;;;;;;8.40;6.47;;;;;;;;;;5034700;28;39848;-79
2021/05/08 11:55:47;;;;;;;12.07;7.60;;;;;;;;;;5020528;28;39033;-79
2021/05/08 11:58:24;;;;;;;8.97;7.20;;;;;;;;;;5013411;28;37679;-79
2021/05/08 12:00:50;;;;;;;7.87;7.07;;;;;;;;;;5012015;28;37974;-80
2021/05/08 12:03:18;;;;;;;12.33;7.50;;;;;;;;;;5011813;28;37762;-79
2021/05/08 12:05:48;;;;;;;11.60;8.33;;;;;;;;;;5011904;28;38923;-80
2021/05/08 12:08:16;;;;;;;8.93;7.47;;;;;;;;;;5013703;28;37960;-80
2021/05/08 12:10:43;;;;;;;10.47;8.57;;;;;;;;;;5013965;28;36393;-79
2021/05/08 12:13:10;;;;;;;12.97;8.43;;;;;;;;;;5012565;28;40649;-80
2021/05/08 12:15:37;;;;;;;13.17;8.17;;;;;;;;;;5011563;28;38816;-79
2021/05/08 12:18:07;;;;;;;11.13;8.67;;;;;;;;;;4994403;28;38850;-80
2021/05/08 12:20:36;;;;;;;11.13;9.23;;;;;;;;;;5013870;28;37115;-79
2021/05/08 12:23:10;;;;;;;11.50;9.50;;;;;;;;;;5012779;28;40763;-80
2021/05/08 12:25:36;;;;;;;12.73;8.20;;;;;;;;;;5029674;28;49049;-78
2021/05/08 12:28:32;;;;;;;11.53;8.97;;;;;;;;;;5029299;28;38584;-79
2021/05/08 12:30:59;;;;;;;11.03;8.70;;;;;;;;;;5002204;28;36133;-79
2021/05/08 12:33:26;;;;;;;11.90;9.03;;;;;;;;;;5032196;28;39413;-78
2021/05/08 12:35:56;;;;;;;14.23;9.53;;;;;;;;;;5030401;28;40299;-78
2021/05/08 12:38:26;;;;;;;15.10;8.90;;;;;;;;;;5012496;28;38071;-81
2021/05/08 12:40:53;;;;;;;15.10;10.73;;;;;;;;;;5004961;28;36990;-80
2021/05/08 12:43:24;;;;;;;12.03;10.70;;;;;;;;;;5011893;28;39177;-80
2021/05/08 12:46:04;;;;;;;13.50;10.57;;;;;;;;;;4996139;28;38608;-80
2021/05/08 12:48:31;;;;;;;15.13;12.00;;;;;;;;;;4997766;28;47244;-80
2021/05/08 12:50:57;;;;;;;13.57;11.43;;;;;;;;;;4999476;28;37380;-80
2021/05/08 12:53:24;;;;;;;13.40;12.03;;;;;;;;;;4995476;28;40436;-80
2021/05/08 12:56:04;;;;;;;19.83;12.75;;;;;;;;;;4993033;28;39083;-80
2021/05/08 12:58:38;;;;;;;18.73;13.07;;;;;;;;;;4989473;28;47096;-80
2021/05/08 13:01:05;;;;;;;15.93;13.13;;;;;;;;;;4998949;28;38929;-80
2021/05/08 13:06:04;;;;;;;17.50;13.40;;;;;;;;;;5019474;28;38993;-80
2021/05/08 13:08:51;;;;;;;18.20;13.27;;;;;;;;;;4994636;28;47342;-80
2021/05/08 13:11:36;;;;;;;16.73;12.25;;;;;;;;;;4999589;28;37072;-80
2021/05/08 13:14:21;;;;;;;17.58;13.23;;;;;;;;;;4999194;28;38666;-84
2021/05/08 13:16:49;;;;;;;16.03;13.13;;;;;;;;;;4984895;28;40237;-80
2021/05/08 13:19:16;;;;;;;13.93;11.45;;;;;;;;;;4990221;28;39411;-79
2021/05/08 13:21:47;;;;;;;12.88;10.80;;;;;;;;;;4971134;28;37763;-79
2021/05/08 13:24:13;;;;;;;13.38;10.30;;;;;;;;;;4972965;28;39507;-78
2021/05/08 13:26:40;;;;;;;14.30;10.80;;;;;;;;;;4990832;28;39518;-79
2021/05/08 13:29:07;;;;;;;11.32;8.82;;;;;;;;;;4971292;28;38276;-79
2021/05/08 13:31:34;;;;;;;9.23;8.07;;;;;;;;;;4997063;28;38301;-79
2021/05/08 13:34:00;;;;;;;9.68;8.15;;;;;;;;;;5031754;28;39620;-79
2021/05/08 13:36:27;;;;;;;9.18;8.23;;;;;;;;;;5029664;28;39044;-78
2021/05/08 13:38:54;;;;;;;8.90;7.80;;;;;;;;;;5029216;28;38388;-79
2021/05/08 13:41:20;;;;;;;11.15;8.20;;;;;;;;;;5021527;28;37675;-79
2021/05/08 13:43:46;;;;;;;10.02;7.95;;;;;;;;;;5008685;28;38697;-78
2021/05/08 13:46:13;;;;;;;12.70;8.68;;;;;;;;;;5006244;28;38643;-79
2021/05/08 13:48:39;;;;;;;11.35;8.30;;;;;;;;;;5012144;28;38731;-79
2021/05/08 13:51:06;;;;;;;10.55;8.02;;;;;;;;;;5028449;28;38131;-79
2021/05/08 13:53:33;;;;;;;10.25;8.25;;;;;;;;;;5029571;28;38890;-80
2021/05/08 13:55:59;;;;;;;10.65;8.07;;;;;;;;;;5032387;28;38797;-78
2021/05/08 13:58:26;;;;;;;10.57;7.80;;;;;;;;;;5025153;28;39821;-79
2021/05/08 14:00:52;;;;;;;10.38;8.90;;;;;;;;;;5009912;28;38332;-78
2021/05/08 14:03:19;;;;;;;9.63;8.23;;;;;;;;;;5009079;28;39915;-79
2021/05/08 14:05:45;;;;;;;11.73;8.95;;;;;;;;;;5006545;28;38898;-78
2021/05/08 14:08:12;;;;;;;12.00;8.25;;;;;;;;;;5005635;28;38900;-79
2021/05/08 14:10:38;;;;;;;9.80;8.43;;;;;;;;;;5006487;28;37932;-79
2021/05/08 14:13:04;;;;;;;9.35;8.35;;;;;;;;;;5007830;28;40701;-78
2021/05/08 14:15:31;;;;;;;13.82;9.05;;;;;;;;;;5005567;28;40061;-78
2021/05/08 14:17:57;;;;;;;10.85;8.80;;;;;;;;;;4990611;28;38110;-78
2021/05/08 14:20:24;;;;;;;13.25;9.73;;;;;;;;;;5007042;28;36383;-78
2021/05/08 14:22:50;;;;;;;10.50;8.65;;;;;;;;;;5007634;28;38905;-78
2021/05/08 14:25:17;;;;;;;10.65;8.20;;;;;;;;;;5005351;28;39146;-76
2021/05/08 14:27:43;;;;;;;9.73;8.00;;;;;;;;;;5008804;28;38337;-80
2021/05/08 14:30:11;;;;;;;8.27;7.30;;;;;;;;;;5007318;28;37160;-77
2021/05/08 14:32:38;;;;;;;7.53;6.82;;;;;;;;;;4992457;28;39833;-78
2021/05/08 14:35:05;;;;;;;13.55;8.25;;;;;;;;;;4987547;28;39680;-78
2021/05/08 14:37:31;;;;;;;9.85;6.85;;;;;;;;;;4988064;28;38392;-77
2021/05/08 14:39:58;;;;;;;10.20;7.15;;;;;;;;;;4995408;28;37702;-77